Time;durP1;ratioP1;P1;durP2;ratioP2;P2;SDS_P1;SDS_P2;PMS_P1;PMS_P2;Temp;Humidity;BMP_temperature;BMP_pressure;BME280_temperature;BME280_humidity;BME280_pressure;Samples;Min_cycle;Max_cycle;Signal;HPM_P1;HPM_P2
2021/12/06 00:01:47;;;;;;;28.03;17.70;;;;;;;;;;5071233;28;20278;-62
2021/12/06 00:04:14;;;;;;;28.40;17.57;;;;;;;;;;5071576;28;20438;-63
2021/12/06 00:06:42;;;;;;;27.20;17.17;;;;;;;;;;5071243;28;20971;-62
2021/12/06 00:09:09;;;;;;;26.97;16.97;;;;;;;;;;5071536;28;20441;-62
2021/12/06 00:11:35;;;;;;;26.20;17.83;;;;;;;;;;5071055;28;20445;-62
2021/12/06 00:14:03;;;;;;;27.07;17.53;;;;;;;;;;5071628;28;20770;-61
2021/12/06 00:16:30;;;;;;;26.57;16.53;;;;;;;;;;5073200;28;20473;-62
2021/12/06 00:18:56;;;;;;;26.27;18.00;;;;;;;;;;5074985;28;20536;-63
2021/12/06 00:21:23;;;;;;;24.30;15.97;;;;;;;;;;5075161;28;20464;-62
2021/12/06 00:23:49;;;;;;;25.20;17.17;;;;;;;;;;5074633;28;20196;-61
2021/12/06 00:26:15;;;;;;;27.10;16.30;;;;;;;;;;5054786;28;20984;-62
2021/12/06 00:28:43;;;;;;;24.00;16.67;;;;;;;;;;5054900;28;20438;-62
2021/12/06 00:31:09;;;;;;;22.63;16.43;;;;;;;;;;5055024;28;20469;-62
2021/12/06 00:33:36;;;;;;;20.93;15.27;;;;;;;;;;5054340;28;20431;-61
2021/12/06 00:36:08;;;;;;;24.70;17.13;;;;;;;;;;5054914;28;20426;-63
2021/12/06 00:38:34;;;;;;;24.07;17.27;;;;;;;;;;5054666;28;20439;-61
2021/12/06 00:41:01;;;;;;;21.23;16.20;;;;;;;;;;5054676;28;20443;-61
2021/12/06 00:43:27;;;;;;;21.47;16.10;;;;;;;;;;5054415;28;20819;-61
2021/12/06 00:45:53;;;;;;;21.67;16.20;;;;;;;;;;5054441;28;20470;-62
2021/12/06 00:48:19;;;;;;;22.73;16.80;;;;;;;;;;5054622;28;20204;-62
2021/12/06 00:50:46;;;;;;;27.73;19.13;;;;;;;;;;5054413;28;20239;-62
2021/12/06 00:53:13;;;;;;;23.17;18.20;;;;;;;;;;5054565;28;20193;-61
2021/12/06 00:55:39;;;;;;;22.37;17.53;;;;;;;;;;5054171;28;21198;-62
2021/12/06 00:58:05;;;;;;;27.93;19.37;;;;;;;;;;5054507;28;20447;-62
2021/12/06 01:00:35;;;;;;;25.87;19.27;;;;;;;;;;5054297;28;20285;-62
2021/12/06 01:03:01;;;;;;;28.73;20.73;;;;;;;;;;5069269;28;20438;-59
2021/12/06 01:05:28;;;;;;;30.83;24.75;;;;;;;;;;5073067;28;20575;-60
2021/12/06 01:07:55;;;;;;;30.17;21.70;;;;;;;;;;5074268;28;20279;-61
2021/12/06 01:10:21;;;;;;;30.17;21.57;;;;;;;;;;5074388;28;20438;-61
2021/12/06 01:12:47;;;;;;;31.37;21.67;;;;;;;;;;5073939;28;20426;-61
2021/12/06 01:15:13;;;;;;;28.97;21.00;;;;;;;;;;5074158;28;20464;-61
2021/12/06 01:17:40;;;;;;;27.10;19.23;;;;;;;;;;5073862;28;20430;-63
2021/12/06 01:20:08;;;;;;;27.60;20.10;;;;;;;;;;5073876;28;20912;-63
2021/12/06 01:41:18;;;;;;;29.93;20.70;;;;;;;;;;5073737;28;20502;-62
2021/12/06 01:44:07;;;;;;;28.23;20.77;;;;;;;;;;5073390;28;20437;-63
2021/12/06 01:46:34;;;;;;;30.37;20.70;;;;;;;;;;5073085;28;20469;-62
2021/12/06 01:49:00;;;;;;;26.03;19.00;;;;;;;;;;5073561;28;20430;-63
2021/12/06 01:51:28;;;;;;;32.00;21.03;;;;;;;;;;5073315;28;20494;-62
2021/12/06 01:53:54;;;;;;;30.73;20.53;;;;;;;;;;5073018;28;20520;-63
2021/12/06 01:56:21;;;;;;;33.83;22.33;;;;;;;;;;5073154;28;20520;-62
2021/12/06 01:58:47;;;;;;;29.13;19.70;;;;;;;;;;5072879;28;20444;-62
2021/12/06 02:01:13;;;;;;;28.20;19.23;;;;;;;;;;5073065;28;20508;-63
2021/12/06 02:03:39;;;;;;;27.07;19.03;;;;;;;;;;5072954;28;20444;-61
2021/12/06 02:06:05;;;;;;;27.17;18.47;;;;;;;;;;5072975;28;20469;-63
2021/12/06 02:08:31;;;;;;;25.73;19.00;;;;;;;;;;5073154;28;20227;-64
2021/12/06 02:11:01;;;;;;;25.23;18.33;;;;;;;;;;5073163;28;20460;-62
2021/12/06 02:13:33;;;;;;;25.60;18.60;;;;;;;;;;5072906;28;20422;-63
2021/12/06 02:16:01;;;;;;;28.33;19.37;;;;;;;;;;5073005;28;20940;-63
2021/12/06 02:21:11;;;;;;;28.20;20.10;;;;;;;;;;5073153;28;20469;-61
2021/12/06 02:23:37;;;;;;;28.33;19.53;;;;;;;;;;5072779;28;20445;-61
2021/12/06 02:26:03;;;;;;;26.30;18.80;;;;;;;;;;5072841;28;20469;-63
2021/12/06 02:28:29;;;;;;;26.60;18.43;;;;;;;;;;5072674;28;20529;-62
2021/12/06 02:30:55;;;;;;;28.27;19.57;;;;;;;;;;5072668;28;20203;-62
2021/12/06 02:33:22;;;;;;;27.03;18.83;;;;;;;;;;5072521;28;20195;-62
2021/12/06 02:35:48;;;;;;;30.90;19.70;;;;;;;;;;5072676;28;20587;-62
2021/12/06 02:38:16;;;;;;;29.00;19.27;;;;;;;;;;5072649;28;20955;-62
2021/12/06 02:40:42;;;;;;;26.73;18.50;;;;;;;;;;5071611;28;20936;-62
2021/12/06 02:43:09;;;;;;;27.37;20.00;;;;;;;;;;5072580;28;20722;-62
2021/12/06 02:45:36;;;;;;;28.07;19.20;;;;;;;;;;5072278;28;21018;-62
2021/12/06 02:48:05;;;;;;;30.67;19.97;;;;;;;;;;5072339;28;20441;-62
2021/12/06 02:50:33;;;;;;;28.17;19.17;;;;;;;;;;5072196;28;20442;-62
2021/12/06 02:52:59;;;;;;;27.73;19.83;;;;;;;;;;5072408;28;20437;-62
2021/12/06 02:57:58;;;;;;;26.10;19.43;;;;;;;;;;5072572;28;20430;-62
2021/12/06 03:00:24;;;;;;;32.20;20.70;;;;;;;;;;5072136;28;20505;-62
2021/12/06 03:02:50;;;;;;;31.03;20.23;;;;;;;;;;5072200;28;20430;-62
2021/12/06 03:05:16;;;;;;;30.40;20.90;;;;;;;;;;5072170;28;20489;-62
2021/12/06 03:07:46;;;;;;;31.90;20.70;;;;;;;;;;5072040;28;20846;-62
2021/12/06 03:10:12;;;;;;;30.73;20.53;;;;;;;;;;5072212;28;20430;-61
2021/12/06 03:12:39;;;;;;;28.47;19.30;;;;;;;;;;5071804;28;20971;-63
2021/12/06 03:15:06;;;;;;;31.00;19.93;;;;;;;;;;5072205;28;20434;-62
2021/12/06 03:17:33;;;;;;;31.13;20.00;;;;;;;;;;5072047;28;20468;-62
2021/12/06 03:20:00;;;;;;;30.53;19.93;;;;;;;;;;5072020;28;20441;-62
2021/12/06 03:22:27;;;;;;;28.10;19.27;;;;;;;;;;5071890;28;20957;-62
2021/12/06 03:24:53;;;;;;;28.60;20.70;;;;;;;;;;5071740;28;21219;-62
2021/12/06 03:27:20;;;;;;;26.10;19.03;;;;;;;;;;5071736;28;20448;-62
2021/12/06 03:29:47;;;;;;;31.07;20.67;;;;;;;;;;5069917;28;20853;-62
2021/12/06 03:32:13;;;;;;;26.43;18.43;;;;;;;;;;5070343;28;20478;-62
2021/12/06 03:34:40;;;;;;;31.27;20.40;;;;;;;;;;5071728;28;20444;-62
2021/12/06 03:37:07;;;;;;;27.93;19.23;;;;;;;;;;5071720;28;20862;-61
2021/12/06 03:39:34;;;;;;;27.27;19.20;;;;;;;;;;5071811;28;20489;-62
2021/12/06 03:42:02;;;;;;;30.33;20.50;;;;;;;;;;5071600;28;20445;-62
2021/12/06 03:44:28;;;;;;;29.83;18.93;;;;;;;;;;5071850;28;20441;-62
2021/12/06 03:46:57;;;;;;;28.73;19.07;;;;;;;;;;5071433;28;20489;-62
2021/12/06 03:49:23;;;;;;;28.57;19.73;;;;;;;;;;5071617;28;20434;-62
2021/12/06 03:51:50;;;;;;;26.50;19.43;;;;;;;;;;5074144;28;20503;-62
2021/12/06 03:54:18;;;;;;;27.10;19.13;;;;;;;;;;5075892;28;20433;-63
2021/12/06 03:56:44;;;;;;;31.23;19.07;;;;;;;;;;5075527;28;20426;-62
2021/12/06 03:59:10;;;;;;;29.57;20.10;;;;;;;;;;5075583;28;20442;-61
2021/12/06 04:01:37;;;;;;;29.37;20.13;;;;;;;;;;5075152;28;20840;-62
2021/12/06 04:04:05;;;;;;;32.97;20.90;;;;;;;;;;5075486;28;20438;-61
2021/12/06 04:06:31;;;;;;;27.70;19.37;;;;;;;;;;5075189;28;20481;-61
2021/12/06 04:08:57;;;;;;;29.30;19.70;;;;;;;;;;5075126;28;20433;-62
2021/12/06 04:11:23;;;;;;;29.60;21.00;;;;;;;;;;5075116;28;20434;-63
2021/12/06 04:13:49;;;;;;;34.80;21.83;;;;;;;;;;5075101;28;20433;-61
2021/12/06 04:16:16;;;;;;;31.87;19.87;;;;;;;;;;5075074;28;20433;-62
2021/12/06 04:18:42;;;;;;;32.37;20.40;;;;;;;;;;5075031;28;20456;-61
2021/12/06 04:21:09;;;;;;;30.13;20.50;;;;;;;;;;5075157;28;21198;-62
2021/12/06 04:23:36;;;;;;;31.30;20.80;;;;;;;;;;5075002;28;20202;-62
2021/12/06 04:26:02;;;;;;;29.70;20.00;;;;;;;;;;5074930;28;20469;-61
2021/12/06 04:28:30;;;;;;;32.77;21.33;;;;;;;;;;5074854;28;20950;-61
2021/12/06 04:30:56;;;;;;;30.73;20.77;;;;;;;;;;5074913;28;21008;-62
2021/12/06 04:33:22;;;;;;;32.73;21.30;;;;;;;;;;5074750;28;20477;-62
2021/12/06 04:35:48;;;;;;;35.97;21.93;;;;;;;;;;5074506;28;20448;-62
2021/12/06 04:38:16;;;;;;;33.30;20.73;;;;;;;;;;5074901;28;20203;-63
2021/12/06 04:40:42;;;;;;;30.90;19.77;;;;;;;;;;5074776;28;20472;-61
2021/12/06 04:43:09;;;;;;;35.37;21.03;;;;;;;;;;5074907;28;20438;-62
2021/12/06 04:45:35;;;;;;;31.00;21.37;;;;;;;;;;5074514;28;20219;-62
2021/12/06 04:48:01;;;;;;;31.90;19.90;;;;;;;;;;5074399;28;20499;-62
2021/12/06 04:50:31;;;;;;;32.67;20.63;;;;;;;;;;5074503;28;20839;-62
2021/12/06 04:53:00;;;;;;;31.80;19.63;;;;;;;;;;5074394;28;20445;-62
2021/12/06 04:55:29;;;;;;;38.63;23.07;;;;;;;;;;5074120;28;20529;-63
2021/12/06 04:57:56;;;;;;;32.70;19.30;;;;;;;;;;5074391;28;20462;-62
2021/12/06 05:00:24;;;;;;;35.53;21.23;;;;;;;;;;5074128;28;20492;-62
2021/12/06 05:02:50;;;;;;;34.37;21.17;;;;;;;;;;5073171;28;20434;-62
2021/12/06 05:05:17;;;;;;;33.93;20.60;;;;;;;;;;5074248;28;21045;-62
2021/12/06 05:07:45;;;;;;;35.73;21.17;;;;;;;;;;5074249;28;20441;-62
2021/12/06 05:10:12;;;;;;;33.57;20.53;;;;;;;;;;5074246;28;20813;-62
2021/12/06 05:12:40;;;;;;;34.00;21.50;;;;;;;;;;5074113;28;20805;-62
2021/12/06 05:15:06;;;;;;;34.73;21.00;;;;;;;;;;5074034;28;20449;-62
2021/12/06 05:17:32;;;;;;;34.20;21.07;;;;;;;;;;5073912;28;20436;-62
2021/12/06 05:19:59;;;;;;;38.63;21.67;;;;;;;;;;5074082;28;20499;-62
2021/12/06 05:22:25;;;;;;;33.57;20.63;;;;;;;;;;5073991;28;20434;-61
2021/12/06 05:24:51;;;;;;;35.07;21.13;;;;;;;;;;5073783;28;20954;-62
2021/12/06 05:27:23;;;;;;;33.10;20.23;;;;;;;;;;5073799;28;20886;-61
2021/12/06 05:29:56;;;;;;;32.30;19.83;;;;;;;;;;5073834;28;20466;-62
2021/12/06 05:32:25;;;;;;;34.17;21.07;;;;;;;;;;5073723;28;20936;-62
2021/12/06 05:34:57;;;;;;;33.43;20.77;;;;;;;;;;5073633;28;20450;-62
2021/12/06 05:37:23;;;;;;;33.13;19.87;;;;;;;;;;5073794;28;20459;-62
2021/12/06 05:39:49;;;;;;;32.90;19.63;;;;;;;;;;5073271;28;20481;-62
2021/12/06 05:42:15;;;;;;;31.87;19.90;;;;;;;;;;5073674;28;20461;-62
2021/12/06 05:44:41;;;;;;;35.87;20.43;;;;;;;;;;5073470;28;20480;-62
2021/12/06 05:47:09;;;;;;;33.03;19.37;;;;;;;;;;5073394;28;20886;-62
2021/12/06 05:49:35;;;;;;;35.63;20.20;;;;;;;;;;5073325;28;20441;-62
2021/12/06 05:52:02;;;;;;;38.20;21.90;;;;;;;;;;5073349;28;20450;-62
2021/12/06 05:54:28;;;;;;;37.50;21.10;;;;;;;;;;5073261;28;20430;-62
2021/12/06 05:56:55;;;;;;;33.50;19.53;;;;;;;;;;5073134;28;20541;-62
2021/12/06 05:59:21;;;;;;;33.63;20.13;;;;;;;;;;5073262;28;20474;-63
2021/12/06 06:01:49;;;;;;;35.40;21.30;;;;;;;;;;5072989;28;20478;-62
2021/12/06 06:04:17;;;;;;;35.70;20.47;;;;;;;;;;5072983;28;20430;-62
2021/12/06 06:06:43;;;;;;;31.87;19.50;;;;;;;;;;5072971;28;20480;-62
2021/12/06 06:09:09;;;;;;;32.77;20.63;;;;;;;;;;5072750;28;21056;-63
2021/12/06 06:11:35;;;;;;;34.77;20.00;;;;;;;;;;5072475;28;20478;-62
2021/12/06 06:14:02;;;;;;;37.17;21.07;;;;;;;;;;5072744;28;20444;-62
2021/12/06 06:16:32;;;;;;;37.17;20.93;;;;;;;;;;5072493;28;20445;-61
2021/12/06 06:18:58;;;;;;;37.13;22.17;;;;;;;;;;5072082;28;20508;-62
2021/12/06 06:21:25;;;;;;;39.73;22.17;;;;;;;;;;5072432;28;20950;-62
2021/12/06 06:23:51;;;;;;;40.30;22.80;;;;;;;;;;5072322;28;20253;-62
2021/12/06 06:26:17;;;;;;;39.53;23.27;;;;;;;;;;5072429;28;20473;-62
2021/12/06 06:28:43;;;;;;;38.53;23.13;;;;;;;;;;5072518;28;20654;-62
2021/12/06 06:31:09;;;;;;;37.70;20.80;;;;;;;;;;5072115;28;20203;-62
2021/12/06 06:33:35;;;;;;;39.67;22.13;;;;;;;;;;5071912;28;20196;-62
2021/12/06 06:36:01;;;;;;;36.73;21.40;;;;;;;;;;5071667;28;20507;-62
2021/12/06 06:38:29;;;;;;;40.10;22.63;;;;;;;;;;5071878;28;20201;-62
2021/12/06 06:40:55;;;;;;;41.40;23.77;;;;;;;;;;5071528;28;20455;-62
2021/12/06 06:43:21;;;;;;;42.67;22.30;;;;;;;;;;5071652;28;20473;-62
2021/12/06 06:45:47;;;;;;;41.33;21.03;;;;;;;;;;5071388;28;20508;-63
2021/12/06 06:48:13;;;;;;;39.57;21.90;;;;;;;;;;5071561;28;20227;-62
2021/12/06 06:50:39;;;;;;;45.40;23.70;;;;;;;;;;5071214;28;20452;-62
2021/12/06 06:53:06;;;;;;;44.83;22.87;;;;;;;;;;5071782;28;20430;-62
2021/12/06 06:55:33;;;;;;;43.73;24.17;;;;;;;;;;5071851;28;20442;-62
2021/12/06 06:57:59;;;;;;;41.97;24.93;;;;;;;;;;5071803;28;20524;-62
2021/12/06 07:00:27;;;;;;;43.57;22.10;;;;;;;;;;5071425;28;20531;-62
2021/12/06 07:02:53;;;;;;;42.40;23.57;;;;;;;;;;5071416;28;20536;-62
2021/12/06 07:05:19;;;;;;;41.77;22.63;;;;;;;;;;5071431;28;20507;-61
2021/12/06 07:07:45;;;;;;;46.77;24.23;;;;;;;;;;5071548;28;20512;-61
2021/12/06 07:10:11;;;;;;;46.77;23.77;;;;;;;;;;5071310;28;21039;-61
2021/12/06 07:12:47;;;;;;;42.97;23.83;;;;;;;;;;5071219;28;20203;-61
2021/12/06 07:15:15;;;;;;;49.43;25.43;;;;;;;;;;5071273;28;20466;-62
2021/12/06 07:17:41;;;;;;;48.83;25.57;;;;;;;;;;5071223;28;20473;-62
2021/12/06 07:20:08;;;;;;;47.77;24.50;;;;;;;;;;5071319;28;20446;-63
2021/12/06 07:22:34;;;;;;;44.20;23.13;;;;;;;;;;5071481;28;20538;-62
2021/12/06 07:25:00;;;;;;;42.43;23.70;;;;;;;;;;5071181;28;20842;-62
2021/12/06 07:27:26;;;;;;;40.00;21.30;;;;;;;;;;5071030;28;20568;-62
2021/12/06 07:29:54;;;;;;;41.30;22.50;;;;;;;;;;5071300;28;20537;-62
2021/12/06 07:32:20;;;;;;;45.93;25.23;;;;;;;;;;5071275;28;20203;-62
2021/12/06 07:34:47;;;;;;;44.03;24.53;;;;;;;;;;5071586;28;20567;-62
2021/12/06 07:37:13;;;;;;;44.30;24.00;;;;;;;;;;5071524;28;20226;-63
2021/12/06 07:39:39;;;;;;;38.60;22.77;;;;;;;;;;5069508;28;20454;-62
2021/12/06 07:42:05;;;;;;;45.43;24.17;;;;;;;;;;5071652;28;20192;-62
2021/12/06 07:44:33;;;;;;;44.73;24.40;;;;;;;;;;5071328;28;20438;-62
2021/12/06 07:47:01;;;;;;;40.60;22.97;;;;;;;;;;5071008;28;20508;-62
2021/12/06 07:49:27;;;;;;;44.63;23.40;;;;;;;;;;5071194;28;20489;-62
2021/12/06 07:51:54;;;;;;;44.50;23.03;;;;;;;;;;5071151;28;20450;-59
2021/12/06 07:54:20;;;;;;;42.07;24.00;;;;;;;;;;5071045;28;20673;-61
2021/12/06 07:56:47;;;;;;;42.50;23.90;;;;;;;;;;5071137;28;20886;-61
2021/12/06 07:59:13;;;;;;;40.27;23.77;;;;;;;;;;5070849;28;20438;-62
2021/12/06 08:01:39;;;;;;;37.33;22.20;;;;;;;;;;5070824;28;20955;-61
2021/12/06 08:04:07;;;;;;;35.67;22.67;;;;;;;;;;5070786;28;20438;-62
2021/12/06 08:06:33;;;;;;;33.83;22.27;;;;;;;;;;5070837;28;20505;-61
2021/12/06 08:08:59;;;;;;;38.93;22.93;;;;;;;;;;5070740;28;20477;-62
2021/12/06 08:11:25;;;;;;;36.87;22.80;;;;;;;;;;5070917;28;20434;-61
2021/12/06 08:13:55;;;;;;;33.43;21.37;;;;;;;;;;5070915;28;20842;-62
2021/12/06 08:16:23;;;;;;;31.50;21.30;;;;;;;;;;5071204;28;20456;-62
2021/12/06 08:18:49;;;;;;;30.07;20.47;;;;;;;;;;5070599;28;20437;-62
2021/12/06 08:21:18;;;;;;;30.43;19.97;;;;;;;;;;5071007;28;20912;-59
2021/12/06 08:23:44;;;;;;;34.10;22.33;;;;;;;;;;5070907;28;20283;-59
2021/12/06 08:26:11;;;;;;;31.27;20.73;;;;;;;;;;5070957;28;20474;-59
2021/12/06 08:28:37;;;;;;;30.20;20.33;;;;;;;;;;5070732;28;20445;-58
2021/12/06 08:31:04;;;;;;;29.17;19.53;;;;;;;;;;5070973;28;20442;-58
2021/12/06 08:33:30;;;;;;;29.90;20.97;;;;;;;;;;5070809;28;20445;-59
2021/12/06 08:35:57;;;;;;;28.30;19.80;;;;;;;;;;5070510;28;20541;-59
2021/12/06 08:38:26;;;;;;;32.30;21.10;;;;;;;;;;5072305;28;20491;-59
2021/12/06 08:40:52;;;;;;;31.47;21.63;;;;;;;;;;5074224;28;20440;-59
2021/12/06 08:43:19;;;;;;;33.90;21.77;;;;;;;;;;5074234;28;20513;-59
2021/12/06 08:45:47;;;;;;;32.97;21.20;;;;;;;;;;5074019;28;20480;-59
2021/12/06 08:48:13;;;;;;;30.00;20.83;;;;;;;;;;5074028;28;20442;-59
2021/12/06 08:50:39;;;;;;;28.27;19.93;;;;;;;;;;5073867;28;20433;-58
2021/12/06 08:53:06;;;;;;;20.20;15.60;;;;;;;;;;5073887;28;20428;-53
2021/12/06 08:55:33;;;;;;;29.90;20.77;;;;;;;;;;5068491;28;20465;-59
2021/12/06 08:57:59;;;;;;;30.07;20.23;;;;;;;;;;5069516;28;20477;-60
2021/12/06 09:00:27;;;;;;;28.87;19.90;;;;;;;;;;5073300;28;20993;-59
2021/12/06 09:02:53;;;;;;;30.30;20.80;;;;;;;;;;5072887;28;20799;-59
2021/12/06 09:05:20;;;;;;;27.23;19.53;;;;;;;;;;5073571;28;20458;-59
2021/12/06 09:07:47;;;;;;;29.43;20.53;;;;;;;;;;5073353;28;20480;-59
2021/12/06 09:10:13;;;;;;;28.37;18.57;;;;;;;;;;5073414;28;20805;-59
2021/12/06 09:12:40;;;;;;;31.60;20.77;;;;;;;;;;5073450;28;20438;-60
2021/12/06 09:15:08;;;;;;;28.87;20.60;;;;;;;;;;5073632;28;20446;-60
2021/12/06 09:17:34;;;;;;;36.60;24.63;;;;;;;;;;5072990;28;20434;-59
2021/12/06 09:20:00;;;;;;;29.10;20.50;;;;;;;;;;5073151;28;20450;-59
2021/12/06 09:22:26;;;;;;;32.83;22.33;;;;;;;;;;5073408;28;20453;-59
2021/12/06 09:24:52;;;;;;;29.07;21.07;;;;;;;;;;5073195;28;20434;-60
2021/12/06 09:27:18;;;;;;;27.47;19.97;;;;;;;;;;5073259;28;20469;-58
2021/12/06 09:29:46;;;;;;;38.57;24.03;;;;;;;;;;5073311;28;20426;-60
2021/12/06 09:32:13;;;;;;;28.87;19.93;;;;;;;;;;5073068;28;20434;-59
2021/12/06 09:34:43;;;;;;;27.47;20.90;;;;;;;;;;5072937;28;20438;-58
2021/12/06 09:37:11;;;;;;;27.67;19.87;;;;;;;;;;5073361;28;20533;-59
2021/12/06 09:39:38;;;;;;;28.63;19.03;;;;;;;;;;5073275;28;20425;-58
2021/12/06 09:42:04;;;;;;;27.67;19.73;;;;;;;;;;5073166;28;20454;-60
2021/12/06 09:44:30;;;;;;;28.87;20.53;;;;;;;;;;5073257;28;20426;-59
2021/12/06 09:46:58;;;;;;;26.20;19.93;;;;;;;;;;5072856;28;20847;-60
2021/12/06 09:49:25;;;;;;;27.47;18.97;;;;;;;;;;5072559;28;20199;-58
2021/12/06 09:51:52;;;;;;;28.27;19.53;;;;;;;;;;5072747;28;20807;-59
2021/12/06 09:54:19;;;;;;;28.63;19.80;;;;;;;;;;5071297;28;20433;-59
2021/12/06 09:56:45;;;;;;;28.87;19.67;;;;;;;;;;5072608;28;20952;-59
2021/12/06 09:59:12;;;;;;;27.30;19.60;;;;;;;;;;5072585;28;20449;-58
2021/12/06 10:01:40;;;;;;;25.47;18.57;;;;;;;;;;5072269;28;20470;-59
2021/12/06 10:04:09;;;;;;;26.37;18.97;;;;;;;;;;5072346;28;20430;-59
2021/12/06 10:06:35;;;;;;;29.23;19.37;;;;;;;;;;5072362;28;20824;-58
2021/12/06 10:09:03;;;;;;;30.90;19.73;;;;;;;;;;5072491;28;20437;-58
2021/12/06 10:11:30;;;;;;;27.03;19.37;;;;;;;;;;5054283;28;20206;-59
2021/12/06 10:13:57;;;;;;;32.53;20.50;;;;;;;;;;5072132;28;20445;-58
2021/12/06 10:16:23;;;;;;;29.53;19.57;;;;;;;;;;5072084;28;20430;-58
2021/12/06 10:18:49;;;;;;;27.40;18.80;;;;;;;;;;5072062;28;20525;-57
2021/12/06 10:21:17;;;;;;;29.13;19.93;;;;;;;;;;5072426;28;20449;-58
2021/12/06 10:23:43;;;;;;;27.50;19.10;;;;;;;;;;5072030;28;20442;-59
2021/12/06 10:26:10;;;;;;;28.93;19.80;;;;;;;;;;5072099;28;20500;-61
2021/12/06 10:28:39;;;;;;;31.30;19.70;;;;;;;;;;5072144;28;20434;-60
2021/12/06 10:31:06;;;;;;;29.90;19.77;;;;;;;;;;5070270;28;20453;-60
2021/12/06 10:33:33;;;;;;;32.27;21.43;;;;;;;;;;5071116;28;20490;-58
2021/12/06 10:36:01;;;;;;;30.80;20.93;;;;;;;;;;5071725;28;20864;-60
2021/12/06 10:38:33;;;;;;;34.07;22.17;;;;;;;;;;5071796;28;20944;-59
2021/12/06 10:41:00;;;;;;;33.53;21.53;;;;;;;;;;5071872;28;20448;-59
2021/12/06 10:43:26;;;;;;;32.43;20.80;;;;;;;;;;5071592;28;20946;-59
2021/12/06 10:45:54;;;;;;;31.57;21.33;;;;;;;;;;5071469;28;20831;-59
2021/12/06 10:48:22;;;;;;;30.80;20.73;;;;;;;;;;5071538;28;20448;-59
2021/12/06 10:50:55;;;;;;;34.50;21.77;;;;;;;;;;5067870;28;20441;-59
2021/12/06 10:53:22;;;;;;;31.13;22.07;;;;;;;;;;5071602;28;20441;-59
2021/12/06 10:55:51;;;;;;;36.10;22.37;;;;;;;;;;5071805;28;20476;-60
2021/12/06 10:58:18;;;;;;;35.97;22.90;;;;;;;;;;5071668;28;20446;-59
2021/12/06 11:00:46;;;;;;;32.80;21.80;;;;;;;;;;5070825;28;20473;-57
2021/12/06 11:03:20;;;;;;;33.63;21.10;;;;;;;;;;5071668;28;20521;-57
2021/12/06 11:05:49;;;;;;;34.07;21.33;;;;;;;;;;5071216;28;20539;-56
2021/12/06 11:08:16;;;;;;;34.97;22.63;;;;;;;;;;5069288;28;20528;-59
2021/12/06 11:10:43;;;;;;;32.73;22.00;;;;;;;;;;5071209;28;20567;-59
2021/12/06 11:13:18;;;;;;;35.57;23.70;;;;;;;;;;5071342;28;20434;-59
2021/12/06 11:16:08;;;;;;;37.40;23.50;;;;;;;;;;5071713;28;20456;-59
2021/12/06 11:18:36;;;;;;;37.90;23.27;;;;;;;;;;5046252;28;20536;-59
2021/12/06 11:21:02;;;;;;;38.40;23.80;;;;;;;;;;5071352;28;20499;-59
2021/12/06 11:23:28;;;;;;;39.13;24.33;;;;;;;;;;5071375;28;20437;-59
2021/12/06 11:25:55;;;;;;;40.17;23.90;;;;;;;;;;5071406;28;20579;-58
2021/12/06 11:28:30;;;;;;;39.90;24.87;;;;;;;;;;5071196;28;20771;-59
2021/12/06 11:30:57;;;;;;;36.70;21.60;;;;;;;;;;5070846;28;20530;-61
2021/12/06 11:33:27;;;;;;;37.93;22.53;;;;;;;;;;5071323;28;20464;-58
2021/12/06 11:35:53;;;;;;;37.50;22.83;;;;;;;;;;5071043;28;20916;-58
2021/12/06 11:38:19;;;;;;;36.07;22.47;;;;;;;;;;5071087;28;20437;-59
2021/12/06 11:40:45;;;;;;;34.60;22.27;;;;;;;;;;5070988;28;20206;-59
2021/12/06 11:43:13;;;;;;;36.33;23.17;;;;;;;;;;5071087;28;20513;-59
2021/12/06 11:46:04;;;;;;;30.97;21.77;;;;;;;;;;5071068;28;20689;-60
2021/12/06 11:48:29;;;;;;;32.60;21.77;;;;;;;;;;5070637;28;20452;-60
2021/12/06 11:50:56;;;;;;;35.20;22.53;;;;;;;;;;5071047;28;20465;-59
2021/12/06 11:53:24;;;;;;;35.83;22.70;;;;;;;;;;5071192;28;20434;-58
2021/12/06 11:55:51;;;;;;;33.27;21.40;;;;;;;;;;5071033;28;20445;-59
2021/12/06 11:58:22;;;;;;;33.77;21.60;;;;;;;;;;5070784;28;20432;-58
2021/12/06 12:01:03;;;;;;;33.50;21.37;;;;;;;;;;5070678;28;20469;-59
2021/12/06 12:03:30;;;;;;;32.37;22.00;;;;;;;;;;5071085;28;20446;-59
2021/12/06 12:05:56;;;;;;;32.20;20.67;;;;;;;;;;5070607;28;20497;-60
2021/12/06 12:08:23;;;;;;;33.00;20.80;;;;;;;;;;5070841;28;20441;-60
2021/12/06 12:10:50;;;;;;;32.70;20.83;;;;;;;;;;5070826;28;20520;-59
2021/12/06 12:13:24;;;;;;;27.87;20.80;;;;;;;;;;5073971;28;20833;-59
2021/12/06 12:15:50;;;;;;;30.03;20.10;;;;;;;;;;5074634;28;20438;-60
2021/12/06 12:18:18;;;;;;;31.07;20.60;;;;;;;;;;5074755;28;20802;-60
2021/12/06 12:20:44;;;;;;;32.50;20.80;;;;;;;;;;5074583;28;20437;-59
2021/12/06 12:23:10;;;;;;;31.17;21.30;;;;;;;;;;5074739;28;20436;-60
2021/12/06 12:25:42;;;;;;;32.47;21.07;;;;;;;;;;5074490;28;20438;-61
2021/12/06 12:30:40;;;;;;;30.50;20.53;;;;;;;;;;5074335;28;20453;-59
2021/12/06 12:33:08;;;;;;;30.73;20.67;;;;;;;;;;5074157;28;20433;-58
2021/12/06 12:35:38;;;;;;;32.83;21.13;;;;;;;;;;5074226;28;20453;-59
2021/12/06 12:38:05;;;;;;;30.03;20.43;;;;;;;;;;5074454;28;20793;-60
2021/12/06 12:40:39;;;;;;;35.93;22.00;;;;;;;;;;5074243;28;20506;-60
2021/12/06 12:43:06;;;;;;;29.93;21.27;;;;;;;;;;5073859;28;20947;-60
2021/12/06 12:45:33;;;;;;;34.70;21.07;;;;;;;;;;5074117;28;20446;-60
2021/12/06 12:47:59;;;;;;;28.70;19.73;;;;;;;;;;5074007;28;20469;-60
2021/12/06 12:50:29;;;;;;;29.70;19.20;;;;;;;;;;5074032;28;20469;-59
2021/12/06 12:52:59;;;;;;;27.03;17.93;;;;;;;;;;5073996;28;20199;-59
2021/12/06 12:55:27;;;;;;;28.67;19.00;;;;;;;;;;5073440;28;20456;-59
2021/12/06 12:58:05;;;;;;;26.97;18.83;;;;;;;;;;5073875;28;20537;-59
2021/12/06 13:00:31;;;;;;;30.53;18.50;;;;;;;;;;5074006;28;20925;-58
2021/12/06 13:02:57;;;;;;;26.40;17.80;;;;;;;;;;5073745;28;20437;-58
2021/12/06 13:05:26;;;;;;;26.93;18.53;;;;;;;;;;5073577;28;20860;-59
2021/12/06 13:07:59;;;;;;;24.03;16.67;;;;;;;;;;5073575;28;20238;-58
2021/12/06 13:10:29;;;;;;;29.03;19.43;;;;;;;;;;5073794;28;20438;-59
2021/12/06 13:12:57;;;;;;;26.77;17.50;;;;;;;;;;5073582;28;20541;-60
2021/12/06 13:15:33;;;;;;;29.13;18.23;;;;;;;;;;5073818;28;20586;-60
2021/12/06 13:17:59;;;;;;;27.13;19.10;;;;;;;;;;5073721;28;20433;-59
2021/12/06 13:20:26;;;;;;;31.47;19.37;;;;;;;;;;5073885;28;20438;-60
2021/12/06 13:22:54;;;;;;;26.97;18.13;;;;;;;;;;5073179;28;20242;-59
2021/12/06 13:25:21;;;;;;;28.80;19.57;;;;;;;;;;5073049;28;20430;-57
2021/12/06 13:27:55;;;;;;;29.67;19.43;;;;;;;;;;5073356;28;20568;-57
2021/12/06 13:30:22;;;;;;;27.67;18.37;;;;;;;;;;5073411;28;20524;-57
2021/12/06 13:32:53;;;;;;;25.17;17.47;;;;;;;;;;5073367;28;20438;-58
2021/12/06 13:35:29;;;;;;;23.53;17.30;;;;;;;;;;5073638;28;20437;-58
2021/12/06 13:37:59;;;;;;;25.70;17.80;;;;;;;;;;5073339;28;20429;-58
2021/12/06 13:40:25;;;;;;;22.10;15.93;;;;;;;;;;5073308;28;20444;-58
2021/12/06 13:42:52;;;;;;;25.73;16.67;;;;;;;;;;5073163;28;20438;-58
2021/12/06 13:45:19;;;;;;;25.50;17.43;;;;;;;;;;5073464;28;20441;-58
2021/12/06 13:47:48;;;;;;;23.50;17.00;;;;;;;;;;5073214;28;20523;-60
2021/12/06 13:50:15;;;;;;;25.57;17.93;;;;;;;;;;5073048;28;20743;-60
2021/12/06 13:52:42;;;;;;;26.53;17.30;;;;;;;;;;5072958;28;20445;-61
2021/12/06 13:55:18;;;;;;;24.87;16.90;;;;;;;;;;5072696;28;20552;-59
2021/12/06 13:57:45;;;;;;;26.47;16.73;;;;;;;;;;5073066;28;20434;-59
2021/12/06 14:00:13;;;;;;;21.23;15.97;;;;;;;;;;5072409;28;20910;-59
2021/12/06 14:02:39;;;;;;;25.30;17.57;;;;;;;;;;5071458;28;20449;-59
2021/12/06 14:05:05;;;;;;;24.40;17.47;;;;;;;;;;5072148;28;20567;-60
2021/12/06 14:07:32;;;;;;;22.87;16.37;;;;;;;;;;5072429;28;20474;-60
2021/12/06 14:09:59;;;;;;;23.80;17.40;;;;;;;;;;5072259;28;20448;-60
2021/12/06 14:12:27;;;;;;;24.40;16.87;;;;;;;;;;5072398;28;20505;-60
2021/12/06 14:14:56;;;;;;;23.93;16.90;;;;;;;;;;5072078;28;20652;-60
2021/12/06 14:17:23;;;;;;;26.63;17.87;;;;;;;;;;5072062;28;20437;-61
2021/12/06 14:19:50;;;;;;;24.30;16.30;;;;;;;;;;5071947;28;20816;-60
2021/12/06 14:22:18;;;;;;;21.40;15.93;;;;;;;;;;5072296;28;20819;-60
2021/12/06 14:24:45;;;;;;;22.23;15.70;;;;;;;;;;5072122;28;20553;-61
2021/12/06 14:27:12;;;;;;;21.67;16.10;;;;;;;;;;5071976;28;20843;-60
2021/12/06 14:29:40;;;;;;;22.60;15.83;;;;;;;;;;5071895;28;20445;-60
2021/12/06 14:32:07;;;;;;;24.37;17.33;;;;;;;;;;5071729;28;20452;-60
2021/12/06 14:34:40;;;;;;;22.40;16.60;;;;;;;;;;5071778;28;21003;-59
2021/12/06 14:37:07;;;;;;;23.93;16.60;;;;;;;;;;5071789;28;20434;-61
2021/12/06 14:39:35;;;;;;;22.03;15.87;;;;;;;;;;5071877;28;20445;-61
2021/12/06 14:42:02;;;;;;;23.60;16.40;;;;;;;;;;5070098;28;20430;-62
2021/12/06 14:44:33;;;;;;;24.30;18.33;;;;;;;;;;5071365;28;20430;-60